MQT583 CYYR-CYQB
Flight info
| Callsign | MQT583 |
|---|---|
| Flight time | 1h 38m |
| Altitude | 36000 |
| Route | ALKOB DCT YZV DCT MIVAX DCT SIMTO SIMTO4 |
| Aircraft | A320/M-SDE3FGHIRWY/LB1 |
Departure
| Time | 2026-05-05 17:45 |
|---|---|
| Airport | Goose Bay Airport (CYYR) |
Arrival
| Time | 2026-05-05 19:24 |
|---|---|
| Airport | Quebec Jean Lesage International Airport (CYQB) |
| Time | Latitude | Longitude | Altitude | Speed | Heading |
|---|---|---|---|---|---|
| 2026-05-05 17:22 | 53.31401 | -60.41481 | 162 ft | 0 kts | 229° |
| 2026-05-05 17:35 | 53.31402 | -60.41477 | 161 ft | 3 kts | 228° |
| 2026-05-05 17:35 | 53.31421 | -60.41448 | 162 ft | 4 kts | 209° |
| 2026-05-05 17:36 | 53.31437 | -60.41437 | 161 ft | 4 kts | 187° |
| 2026-05-05 17:36 | 53.31462 | -60.41442 | 161 ft | 4 kts | 149° |
| 2026-05-05 17:36 | 53.31482 | -60.41470 | 162 ft | 4 kts | 127° |
| 2026-05-05 17:36 | 53.31496 | -60.41508 | 162 ft | 4 kts | 115° |
| 2026-05-05 17:37 | 53.31506 | -60.41550 | 162 ft | 4 kts | 104° |
| 2026-05-05 17:37 | 53.31510 | -60.41594 | 162 ft | 4 kts | 82° |
| 2026-05-05 17:37 | 53.31507 | -60.41616 | 162 ft | 0 kts | 55° |
| 2026-05-05 17:39 | 53.31512 | -60.41605 | 162 ft | 5 kts | 54° |
| 2026-05-05 17:40 | 53.31548 | -60.41528 | 162 ft | 10 kts | 52° |
| 2026-05-05 17:40 | 53.31589 | -60.41417 | 162 ft | 12 kts | 71° |
| 2026-05-05 17:40 | 53.31587 | -60.41263 | 161 ft | 14 kts | 99° |
| 2026-05-05 17:40 | 53.31569 | -60.41086 | 161 ft | 16 kts | 99° |
| 2026-05-05 17:41 | 53.31550 | -60.40887 | 161 ft | 18 kts | 100° |
| 2026-05-05 17:41 | 53.31529 | -60.40711 | 161 ft | 6 kts | 100° |
| 2026-05-05 17:41 | 53.31544 | -60.40645 | 161 ft | 8 kts | 24° |
| 2026-05-05 17:41 | 53.31578 | -60.40556 | 160 ft | 13 kts | 63° |
| 2026-05-05 17:42 | 53.31634 | -60.40391 | 159 ft | 18 kts | 49° |
| 2026-05-05 17:42 | 53.31749 | -60.40309 | 161 ft | 18 kts | 13° |
| 2026-05-05 17:42 | 53.31878 | -60.40261 | 161 ft | 17 kts | 4° |
| 2026-05-05 17:42 | 53.31968 | -60.40347 | 162 ft | 16 kts | 312° |
| 2026-05-05 17:43 | 53.32026 | -60.40454 | 162 ft | 10 kts | 313° |
| 2026-05-05 17:43 | 53.32037 | -60.40472 | 162 ft | 0 kts | 313° |
| 2026-05-05 17:43 | 53.32040 | -60.40479 | 162 ft | 2 kts | 313° |
| 2026-05-05 17:44 | 53.32076 | -60.40543 | 163 ft | 10 kts | 313° |
| 2026-05-05 17:44 | 53.32101 | -60.40651 | 164 ft | 11 kts | 262° |
| 2026-05-05 17:44 | 53.32009 | -60.40881 | 163 ft | 51 kts | 234° |
| 2026-05-05 17:44 | 53.31691 | -60.41646 | 163 ft | 106 kts | 236° |
| 2026-05-05 17:45 | 53.31192 | -60.42859 | 206 ft | 144 kts | 235° |
| 2026-05-05 17:45 | 53.30643 | -60.44199 | 840 ft | 138 kts | 234° |
| 2026-05-05 17:45 | 53.30106 | -60.45520 | 1524 ft | 137 kts | 237° |
| 2026-05-05 17:45 | 53.29565 | -60.46854 | 2050 ft | 147 kts | 238° |
| 2026-05-05 17:46 | 53.28949 | -60.48375 | 2288 ft | 168 kts | 238° |
| 2026-05-05 17:46 | 53.28253 | -60.50068 | 2562 ft | 188 kts | 237° |
| 2026-05-05 17:46 | 53.27452 | -60.51973 | 2849 ft | 213 kts | 237° |
| 2026-05-05 17:46 | 53.26555 | -60.54098 | 3303 ft | 233 kts | 237° |
| 2026-05-05 17:47 | 53.25609 | -60.56334 | 4133 ft | 238 kts | 238° |
| 2026-05-05 17:47 | 53.24653 | -60.58598 | 5055 ft | 240 kts | 239° |
| 2026-05-05 17:47 | 53.23690 | -60.60890 | 5943 ft | 243 kts | 240° |
| 2026-05-05 17:47 | 53.22719 | -60.63217 | 6781 ft | 245 kts | 241° |
| 2026-05-05 17:48 | 53.21738 | -60.65567 | 7621 ft | 248 kts | 240° |
| 2026-05-05 17:48 | 53.20748 | -60.67934 | 8450 ft | 250 kts | 240° |
| 2026-05-05 17:48 | 53.19748 | -60.70320 | 9277 ft | 252 kts | 240° |
| 2026-05-05 17:48 | 53.18737 | -60.72728 | 10000 ft | 255 kts | 240° |
| 2026-05-05 17:49 | 53.17701 | -60.75202 | 10433 ft | 270 kts | 240° |
| 2026-05-05 17:49 | 53.16602 | -60.77843 | 10554 ft | 292 kts | 241° |
| 2026-05-05 17:49 | 53.15400 | -60.80733 | 10690 ft | 314 kts | 240° |
| 2026-05-05 17:49 | 53.14114 | -60.83807 | 10910 ft | 331 kts | 240° |
| 2026-05-05 17:50 | 53.12776 | -60.86976 | 11464 ft | 336 kts | 240° |
| 2026-05-05 17:50 | 53.11418 | -60.90169 | 12105 ft | 340 kts | 240° |
| 2026-05-05 17:50 | 53.10045 | -60.93387 | 12752 ft | 343 kts | 240° |
| 2026-05-05 17:50 | 53.08658 | -60.96631 | 13399 ft | 345 kts | 240° |
| 2026-05-05 17:51 | 53.07264 | -60.99902 | 13972 ft | 348 kts | 240° |
| 2026-05-05 17:51 | 53.05863 | -61.03200 | 14546 ft | 350 kts | 240° |
| 2026-05-05 17:51 | 53.04456 | -61.06519 | 15132 ft | 352 kts | 240° |
| 2026-05-05 17:51 | 53.03039 | -61.09857 | 15704 ft | 355 kts | 240° |
| 2026-05-05 17:52 | 53.01597 | -61.13199 | 16265 ft | 358 kts | 239° |
| 2026-05-05 17:52 | 53.00062 | -61.16480 | 16807 ft | 362 kts | 237° |
| 2026-05-05 17:52 | 52.98455 | -61.19709 | 17420 ft | 364 kts | 236° |
| 2026-05-05 17:52 | 52.96806 | -61.22922 | 17975 ft | 366 kts | 236° |
| 2026-05-05 17:53 | 52.95144 | -61.26140 | 18473 ft | 368 kts | 236° |
| 2026-05-05 17:53 | 52.93477 | -61.29381 | 18980 ft | 371 kts | 236° |
| 2026-05-05 17:53 | 52.91806 | -61.32646 | 19485 ft | 372 kts | 237° |
| 2026-05-05 17:53 | 52.90133 | -61.35935 | 19972 ft | 374 kts | 237° |
| 2026-05-05 17:54 | 52.88457 | -61.39247 | 20453 ft | 376 kts | 237° |
| 2026-05-05 17:54 | 52.86774 | -61.42576 | 20916 ft | 378 kts | 237° |
| 2026-05-05 17:54 | 52.85083 | -61.45918 | 21358 ft | 380 kts | 237° |
| 2026-05-05 17:54 | 52.83381 | -61.49275 | 21777 ft | 382 kts | 237° |
| 2026-05-05 17:55 | 52.81671 | -61.52646 | 22182 ft | 384 kts | 237° |
| 2026-05-05 17:55 | 52.79950 | -61.56031 | 22585 ft | 385 kts | 237° |
| 2026-05-05 17:55 | 52.78221 | -61.59424 | 22995 ft | 387 kts | 237° |
| 2026-05-05 17:55 | 52.76484 | -61.62828 | 23373 ft | 389 kts | 237° |
| 2026-05-05 17:56 | 52.74733 | -61.66251 | 23704 ft | 391 kts | 237° |
| 2026-05-05 17:56 | 52.72978 | -61.69677 | 24033 ft | 393 kts | 237° |
| 2026-05-05 17:56 | 52.71210 | -61.73125 | 24357 ft | 395 kts | 237° |
| 2026-05-05 17:56 | 52.69432 | -61.76590 | 24692 ft | 397 kts | 237° |
| 2026-05-05 17:57 | 52.67641 | -61.80078 | 24991 ft | 399 kts | 237° |
| 2026-05-05 17:57 | 52.65844 | -61.83565 | 25388 ft | 399 kts | 237° |
| 2026-05-05 17:57 | 52.64050 | -61.87037 | 25855 ft | 397 kts | 237° |
| 2026-05-05 17:57 | 52.62289 | -61.90441 | 26364 ft | 395 kts | 237° |
| 2026-05-05 17:58 | 52.60489 | -61.93913 | 26873 ft | 393 kts | 237° |
| 2026-05-05 17:58 | 52.58721 | -61.97327 | 27357 ft | 391 kts | 238° |
| 2026-05-05 17:58 | 52.56960 | -62.00732 | 27853 ft | 390 kts | 238° |
| 2026-05-05 17:58 | 52.55226 | -62.04079 | 28379 ft | 389 kts | 238° |
| 2026-05-05 17:59 | 52.53469 | -62.07453 | 28886 ft | 388 kts | 238° |
| 2026-05-05 17:59 | 52.51713 | -62.10813 | 29357 ft | 387 kts | 238° |
| 2026-05-05 17:59 | 52.49939 | -62.14210 | 29800 ft | 386 kts | 238° |
| 2026-05-05 17:59 | 52.48216 | -62.17512 | 30188 ft | 386 kts | 238° |
| 2026-05-05 18:00 | 52.46468 | -62.20866 | 30555 ft | 386 kts | 238° |
| 2026-05-05 18:00 | 52.44719 | -62.24213 | 30887 ft | 387 kts | 237° |
| 2026-05-05 18:00 | 52.42965 | -62.27566 | 31222 ft | 388 kts | 237° |
| 2026-05-05 18:00 | 52.41206 | -62.30925 | 31561 ft | 389 kts | 237° |
| 2026-05-05 18:01 | 52.39441 | -62.34290 | 31900 ft | 390 kts | 236° |
| 2026-05-05 18:01 | 52.37673 | -62.37662 | 32258 ft | 391 kts | 236° |
| 2026-05-05 18:01 | 52.35896 | -62.41037 | 32615 ft | 392 kts | 236° |
| 2026-05-05 18:01 | 52.34111 | -62.44413 | 32958 ft | 393 kts | 236° |
| 2026-05-05 18:02 | 52.32320 | -62.47795 | 33304 ft | 394 kts | 235° |
| 2026-05-05 18:02 | 52.30528 | -62.51184 | 33636 ft | 395 kts | 235° |
| 2026-05-05 18:02 | 52.28731 | -62.54582 | 33892 ft | 396 kts | 235° |
| 2026-05-05 18:02 | 52.26923 | -62.57993 | 34099 ft | 397 kts | 234° |
| 2026-05-05 18:03 | 52.25108 | -62.61415 | 34288 ft | 400 kts | 234° |
| 2026-05-05 18:03 | 52.23278 | -62.64855 | 34502 ft | 402 kts | 234° |
| 2026-05-05 18:03 | 52.21438 | -62.68304 | 34748 ft | 404 kts | 233° |
| 2026-05-05 18:03 | 52.19592 | -62.71759 | 35000 ft | 405 kts | 233° |
| 2026-05-05 18:04 | 52.17742 | -62.75223 | 35230 ft | 406 kts | 233° |
| 2026-05-05 18:04 | 52.15888 | -62.78695 | 35459 ft | 407 kts | 233° |
| 2026-05-05 18:04 | 52.14022 | -62.82175 | 35560 ft | 410 kts | 233° |
| 2026-05-05 18:05 | 52.10216 | -62.89268 | 35594 ft | 422 kts | 232° |
| 2026-05-05 18:05 | 52.06336 | -62.96478 | 35591 ft | 424 kts | 232° |
| 2026-05-05 18:06 | 52.02441 | -63.03681 | 35589 ft | 424 kts | 232° |
| 2026-05-05 18:06 | 51.98542 | -63.10886 | 35593 ft | 424 kts | 232° |
| 2026-05-05 18:07 | 51.94644 | -63.18071 | 35607 ft | 424 kts | 232° |
| 2026-05-05 18:07 | 51.90741 | -63.25237 | 35590 ft | 424 kts | 232° |
| 2026-05-05 18:08 | 51.86837 | -63.32378 | 35604 ft | 423 kts | 232° |
| 2026-05-05 18:08 | 51.82938 | -63.39496 | 35612 ft | 422 kts | 232° |
| 2026-05-05 18:09 | 51.79043 | -63.46609 | 35619 ft | 422 kts | 232° |
| 2026-05-05 18:09 | 51.75139 | -63.53684 | 35618 ft | 422 kts | 232° |
| 2026-05-05 18:10 | 51.71241 | -63.60743 | 35613 ft | 421 kts | 232° |
| 2026-05-05 18:10 | 51.67379 | -63.67715 | 35629 ft | 419 kts | 232° |
| 2026-05-05 18:11 | 51.63508 | -63.74690 | 35632 ft | 417 kts | 232° |
| 2026-05-05 18:11 | 51.59649 | -63.81637 | 35632 ft | 416 kts | 232° |
| 2026-05-05 18:12 | 51.55781 | -63.88556 | 35629 ft | 415 kts | 232° |
| 2026-05-05 18:12 | 51.51920 | -63.95442 | 35624 ft | 413 kts | 232° |
| 2026-05-05 18:13 | 51.48082 | -64.02270 | 35638 ft | 410 kts | 232° |
| 2026-05-05 18:13 | 51.44343 | -64.09138 | 35637 ft | 407 kts | 234° |
| 2026-05-05 18:14 | 51.40702 | -64.16068 | 35635 ft | 406 kts | 234° |
| 2026-05-05 18:14 | 51.37067 | -64.22970 | 35632 ft | 405 kts | 234° |
| 2026-05-05 18:15 | 51.33408 | -64.29818 | 35631 ft | 404 kts | 233° |
| 2026-05-05 18:15 | 51.29747 | -64.36625 | 35663 ft | 403 kts | 233° |
| 2026-05-05 18:16 | 51.26100 | -64.43387 | 35650 ft | 401 kts | 233° |
| 2026-05-05 18:16 | 51.22466 | -64.50108 | 35646 ft | 399 kts | 233° |
| 2026-05-05 18:17 | 51.18843 | -64.56806 | 35639 ft | 399 kts | 233° |
| 2026-05-05 18:17 | 51.15219 | -64.63480 | 35623 ft | 398 kts | 233° |
| 2026-05-05 18:18 | 51.11599 | -64.70126 | 35638 ft | 397 kts | 233° |
| 2026-05-05 18:18 | 51.07982 | -64.76756 | 35634 ft | 396 kts | 232° |
| 2026-05-05 18:19 | 51.04394 | -64.83317 | 35635 ft | 396 kts | 232° |
| 2026-05-05 18:19 | 51.00774 | -64.89907 | 35632 ft | 396 kts | 232° |
| 2026-05-05 18:20 | 50.97153 | -64.96489 | 35626 ft | 396 kts | 232° |
| 2026-05-05 18:20 | 50.93511 | -65.03104 | 35630 ft | 395 kts | 232° |
| 2026-05-05 18:21 | 50.90498 | -65.08553 | 35632 ft | 395 kts | 232° |
| 2026-05-05 18:21 | 50.86285 | -65.16152 | 35630 ft | 395 kts | 232° |
| 2026-05-05 18:22 | 50.82665 | -65.22676 | 35635 ft | 394 kts | 232° |
| 2026-05-05 18:22 | 50.79038 | -65.29184 | 35634 ft | 394 kts | 232° |
| 2026-05-05 18:23 | 50.76002 | -65.34636 | 35639 ft | 394 kts | 232° |
| 2026-05-05 18:23 | 50.72370 | -65.41129 | 35633 ft | 395 kts | 232° |
| 2026-05-05 18:24 | 50.68738 | -65.47601 | 35638 ft | 394 kts | 232° |
| 2026-05-05 18:24 | 50.65093 | -65.54069 | 35642 ft | 395 kts | 232° |
| 2026-05-05 18:25 | 50.61440 | -65.60534 | 35634 ft | 395 kts | 232° |
| 2026-05-05 18:25 | 50.57793 | -65.66988 | 35640 ft | 395 kts | 232° |
| 2026-05-05 18:26 | 50.54146 | -65.73436 | 35643 ft | 394 kts | 232° |
| 2026-05-05 18:26 | 50.50522 | -65.79830 | 35643 ft | 394 kts | 232° |
| 2026-05-05 18:27 | 50.46862 | -65.86252 | 35642 ft | 395 kts | 231° |
| 2026-05-05 18:27 | 50.43198 | -65.92657 | 35639 ft | 394 kts | 231° |
| 2026-05-05 18:28 | 50.37705 | -66.02243 | 35635 ft | 393 kts | 231° |
| 2026-05-05 18:28 | 50.34052 | -66.08614 | 35626 ft | 393 kts | 231° |
| 2026-05-05 18:29 | 50.30388 | -66.14961 | 35629 ft | 393 kts | 231° |
| 2026-05-05 18:29 | 50.26722 | -66.21304 | 35612 ft | 393 kts | 231° |
| 2026-05-05 18:30 | 50.23049 | -66.27618 | 35613 ft | 393 kts | 230° |
| 2026-05-05 18:30 | 50.19181 | -66.33666 | 35616 ft | 394 kts | 227° |
| 2026-05-05 18:31 | 50.15189 | -66.39534 | 35619 ft | 394 kts | 227° |
| 2026-05-05 18:31 | 50.11196 | -66.45408 | 35628 ft | 394 kts | 227° |
| 2026-05-05 18:32 | 50.07233 | -66.51309 | 35604 ft | 394 kts | 227° |
| 2026-05-05 18:32 | 50.03281 | -66.57216 | 35629 ft | 394 kts | 227° |
| 2026-05-05 18:33 | 49.99333 | -66.63107 | 35630 ft | 393 kts | 227° |
| 2026-05-05 18:33 | 49.95383 | -66.68972 | 35620 ft | 393 kts | 227° |
| 2026-05-05 18:34 | 49.91430 | -66.74815 | 35620 ft | 392 kts | 227° |
| 2026-05-05 18:34 | 49.87478 | -66.80655 | 35609 ft | 392 kts | 227° |
| 2026-05-05 18:35 | 49.83536 | -66.86476 | 35606 ft | 391 kts | 227° |
| 2026-05-05 18:35 | 49.79590 | -66.92276 | 35609 ft | 391 kts | 227° |
| 2026-05-05 18:36 | 49.75641 | -66.98060 | 35607 ft | 391 kts | 227° |
| 2026-05-05 18:36 | 49.71691 | -67.03832 | 35575 ft | 391 kts | 227° |
| 2026-05-05 18:37 | 49.67745 | -67.09597 | 35581 ft | 390 kts | 227° |
| 2026-05-05 18:37 | 49.63799 | -67.15357 | 35589 ft | 390 kts | 227° |
| 2026-05-05 18:38 | 49.59850 | -67.21090 | 35587 ft | 390 kts | 226° |
| 2026-05-05 18:38 | 49.55895 | -67.26805 | 35587 ft | 390 kts | 226° |
| 2026-05-05 18:39 | 49.51944 | -67.32516 | 35577 ft | 389 kts | 226° |
| 2026-05-05 18:39 | 49.47995 | -67.38213 | 35583 ft | 389 kts | 226° |
| 2026-05-05 18:40 | 49.44045 | -67.43907 | 35585 ft | 389 kts | 226° |
| 2026-05-05 18:40 | 49.40098 | -67.49579 | 35583 ft | 389 kts | 226° |
| 2026-05-05 18:41 | 49.36150 | -67.55241 | 35579 ft | 388 kts | 226° |
| 2026-05-05 18:41 | 49.32197 | -67.60886 | 35561 ft | 388 kts | 226° |
| 2026-05-05 18:42 | 49.28245 | -67.66519 | 35568 ft | 388 kts | 226° |
| 2026-05-05 18:42 | 49.24292 | -67.72136 | 35573 ft | 388 kts | 226° |
| 2026-05-05 18:43 | 49.20364 | -67.77706 | 35597 ft | 387 kts | 226° |
| 2026-05-05 18:43 | 49.16417 | -67.83304 | 35565 ft | 387 kts | 226° |
| 2026-05-05 18:44 | 49.12476 | -67.88879 | 35569 ft | 386 kts | 225° |
| 2026-05-05 18:44 | 49.08539 | -67.94435 | 35579 ft | 385 kts | 225° |
| 2026-05-05 18:45 | 49.04600 | -67.99982 | 35569 ft | 385 kts | 225° |
| 2026-05-05 18:45 | 49.00658 | -68.05500 | 35566 ft | 385 kts | 225° |
| 2026-05-05 18:46 | 48.96718 | -68.11005 | 35572 ft | 385 kts | 225° |
| 2026-05-05 18:46 | 48.92777 | -68.16518 | 35571 ft | 385 kts | 225° |
| 2026-05-05 18:47 | 48.88839 | -68.22018 | 35569 ft | 384 kts | 225° |
| 2026-05-05 18:47 | 48.84896 | -68.27506 | 35577 ft | 384 kts | 225° |
| 2026-05-05 18:48 | 48.80951 | -68.32984 | 35567 ft | 384 kts | 225° |
| 2026-05-05 18:48 | 48.76997 | -68.38446 | 35573 ft | 384 kts | 225° |
| 2026-05-05 18:49 | 48.73043 | -68.43909 | 35572 ft | 384 kts | 225° |
| 2026-05-05 18:49 | 48.69096 | -68.49359 | 35572 ft | 384 kts | 225° |
| 2026-05-05 18:50 | 48.65143 | -68.54802 | 35570 ft | 384 kts | 225° |
| 2026-05-05 18:50 | 48.61183 | -68.60227 | 35541 ft | 384 kts | 225° |
| 2026-05-05 18:51 | 48.57225 | -68.65648 | 35547 ft | 384 kts | 225° |
| 2026-05-05 18:51 | 48.53265 | -68.71070 | 35552 ft | 384 kts | 225° |
| 2026-05-05 18:52 | 48.49296 | -68.76472 | 35559 ft | 384 kts | 225° |
| 2026-05-05 18:52 | 48.45321 | -68.81875 | 35564 ft | 385 kts | 225° |
| 2026-05-05 18:53 | 48.41347 | -68.87269 | 35568 ft | 385 kts | 225° |
| 2026-05-05 18:53 | 48.37368 | -68.92662 | 35563 ft | 385 kts | 225° |
| 2026-05-05 18:54 | 48.33383 | -68.98046 | 35565 ft | 385 kts | 225° |
| 2026-05-05 18:54 | 48.29396 | -69.03427 | 35572 ft | 385 kts | 225° |
| 2026-05-05 18:55 | 48.25399 | -69.08802 | 35551 ft | 385 kts | 224° |
| 2026-05-05 18:55 | 48.21404 | -69.14165 | 35562 ft | 386 kts | 224° |
| 2026-05-05 18:56 | 48.17405 | -69.19524 | 35566 ft | 386 kts | 224° |
| 2026-05-05 18:56 | 48.13403 | -69.24877 | 35572 ft | 386 kts | 224° |
| 2026-05-05 18:57 | 48.09392 | -69.30215 | 35563 ft | 386 kts | 224° |
| 2026-05-05 18:57 | 48.05383 | -69.35552 | 35565 ft | 386 kts | 224° |
| 2026-05-05 18:58 | 48.01377 | -69.40879 | 35576 ft | 385 kts | 224° |
| 2026-05-05 18:58 | 47.97393 | -69.46160 | 35583 ft | 385 kts | 224° |
| 2026-05-05 18:59 | 47.93387 | -69.51464 | 35588 ft | 385 kts | 224° |
| 2026-05-05 18:59 | 47.89374 | -69.56751 | 35549 ft | 385 kts | 224° |
| 2026-05-05 19:00 | 47.85356 | -69.62026 | 35563 ft | 385 kts | 224° |
| 2026-05-05 19:00 | 47.81389 | -69.67244 | 35538 ft | 370 kts | 225° |
| 2026-05-05 19:01 | 47.79490 | -69.69733 | 35314 ft | 356 kts | 225° |
| 2026-05-05 19:01 | 47.77656 | -69.72137 | 34479 ft | 352 kts | 225° |
| 2026-05-05 19:01 | 47.75798 | -69.74577 | 33207 ft | 358 kts | 225° |
| 2026-05-05 19:01 | 47.73908 | -69.77061 | 31636 ft | 367 kts | 224° |
| 2026-05-05 19:02 | 47.71983 | -69.79584 | 30536 ft | 367 kts | 224° |
| 2026-05-05 19:02 | 47.70112 | -69.82014 | 30132 ft | 349 kts | 224° |
| 2026-05-05 19:02 | 47.68304 | -69.84359 | 29271 ft | 343 kts | 224° |
| 2026-05-05 19:02 | 47.66509 | -69.86695 | 28072 ft | 344 kts | 224° |
| 2026-05-05 19:03 | 47.64708 | -69.89046 | 26829 ft | 346 kts | 224° |
| 2026-05-05 19:03 | 47.62896 | -69.91407 | 25942 ft | 346 kts | 225° |
| 2026-05-05 19:03 | 47.61120 | -69.93713 | 25797 ft | 334 kts | 225° |
| 2026-05-05 19:03 | 47.59389 | -69.95954 | 25483 ft | 328 kts | 225° |
| 2026-05-05 19:04 | 47.57678 | -69.98166 | 25124 ft | 324 kts | 225° |
| 2026-05-05 19:04 | 47.55990 | -70.00351 | 24789 ft | 321 kts | 225° |
| 2026-05-05 19:04 | 47.54318 | -70.02516 | 24429 ft | 318 kts | 225° |
| 2026-05-05 19:04 | 47.52665 | -70.04654 | 24082 ft | 314 kts | 225° |
| 2026-05-05 19:05 | 47.51030 | -70.06765 | 23747 ft | 310 kts | 225° |
| 2026-05-05 19:05 | 47.49410 | -70.08853 | 23405 ft | 307 kts | 225° |
| 2026-05-05 19:05 | 47.47806 | -70.10922 | 23051 ft | 305 kts | 225° |
| 2026-05-05 19:05 | 47.46217 | -70.12973 | 22635 ft | 302 kts | 225° |
| 2026-05-05 19:06 | 47.45167 | -70.14325 | 22348 ft | 301 kts | 225° |
| 2026-05-05 19:06 | 47.43214 | -70.17163 | 21808 ft | 295 kts | 233° |
| 2026-05-05 19:06 | 47.41914 | -70.19486 | 21376 ft | 292 kts | 233° |
| 2026-05-05 19:06 | 47.40620 | -70.21788 | 20954 ft | 290 kts | 232° |
| 2026-05-05 19:07 | 47.39747 | -70.23334 | 20657 ft | 289 kts | 232° |
| 2026-05-05 19:07 | 47.38463 | -70.25609 | 20225 ft | 288 kts | 232° |
| 2026-05-05 19:07 | 47.36768 | -70.28597 | 19648 ft | 286 kts | 232° |
| 2026-05-05 19:07 | 47.35488 | -70.30849 | 19194 ft | 285 kts | 232° |
| 2026-05-05 19:08 | 47.34628 | -70.32359 | 18912 ft | 285 kts | 232° |
| 2026-05-05 19:08 | 47.33357 | -70.34591 | 18475 ft | 284 kts | 231° |
| 2026-05-05 19:08 | 47.32088 | -70.36819 | 18032 ft | 284 kts | 231° |
| 2026-05-05 19:08 | 47.30821 | -70.39043 | 17644 ft | 281 kts | 231° |
| 2026-05-05 19:09 | 47.29586 | -70.41203 | 17434 ft | 272 kts | 231° |
| 2026-05-05 19:09 | 47.28373 | -70.43329 | 17055 ft | 270 kts | 231° |
| 2026-05-05 19:09 | 47.27168 | -70.45447 | 16632 ft | 269 kts | 231° |
| 2026-05-05 19:09 | 47.25964 | -70.47558 | 16204 ft | 269 kts | 231° |
| 2026-05-05 19:10 | 47.24778 | -70.49640 | 15784 ft | 269 kts | 231° |
| 2026-05-05 19:10 | 47.23574 | -70.51750 | 15359 ft | 269 kts | 231° |
| 2026-05-05 19:10 | 47.22371 | -70.53857 | 14935 ft | 269 kts | 231° |
| 2026-05-05 19:10 | 47.21164 | -70.55962 | 14495 ft | 269 kts | 231° |
| 2026-05-05 19:11 | 47.19953 | -70.58067 | 14071 ft | 270 kts | 231° |
| 2026-05-05 19:11 | 47.18741 | -70.60176 | 13645 ft | 270 kts | 232° |
| 2026-05-05 19:11 | 47.17528 | -70.62290 | 13188 ft | 271 kts | 232° |
| 2026-05-05 19:11 | 47.16312 | -70.64409 | 12731 ft | 270 kts | 232° |
| 2026-05-05 19:12 | 47.15102 | -70.66516 | 12301 ft | 269 kts | 232° |
| 2026-05-05 19:12 | 47.13897 | -70.68615 | 11870 ft | 268 kts | 232° |
| 2026-05-05 19:12 | 47.12696 | -70.70705 | 11444 ft | 267 kts | 232° |
| 2026-05-05 19:12 | 47.11499 | -70.72778 | 11052 ft | 266 kts | 232° |
| 2026-05-05 19:13 | 47.10303 | -70.74844 | 10607 ft | 265 kts | 232° |
| 2026-05-05 19:13 | 47.09113 | -70.76899 | 10249 ft | 263 kts | 232° |
| 2026-05-05 19:13 | 47.07949 | -70.78912 | 10139 ft | 254 kts | 232° |
| 2026-05-05 19:13 | 47.06830 | -70.80850 | 9899 ft | 245 kts | 232° |
| 2026-05-05 19:14 | 47.05761 | -70.82760 | 9780 ft | 241 kts | 237° |
| 2026-05-05 19:14 | 47.04965 | -70.84931 | 9376 ft | 244 kts | 244° |
| 2026-05-05 19:14 | 47.04233 | -70.87181 | 9011 ft | 243 kts | 244° |
| 2026-05-05 19:14 | 47.03510 | -70.89409 | 8384 ft | 241 kts | 244° |
| 2026-05-05 19:15 | 47.02786 | -70.91633 | 8034 ft | 240 kts | 244° |
| 2026-05-05 19:15 | 47.02072 | -70.93817 | 7581 ft | 235 kts | 244° |
| 2026-05-05 19:15 | 47.01362 | -70.95976 | 6939 ft | 235 kts | 244° |
| 2026-05-05 19:15 | 47.00654 | -70.98125 | 6385 ft | 232 kts | 244° |
| 2026-05-05 19:16 | 46.99959 | -71.00236 | 5874 ft | 228 kts | 244° |
| 2026-05-05 19:16 | 46.99280 | -71.02300 | 5382 ft | 223 kts | 244° |
| 2026-05-05 19:16 | 46.98614 | -71.04319 | 5014 ft | 218 kts | 244° |
| 2026-05-05 19:16 | 46.97971 | -71.06265 | 4966 ft | 207 kts | 244° |
| 2026-05-05 19:17 | 46.97360 | -71.08107 | 4904 ft | 196 kts | 244° |
| 2026-05-05 19:17 | 46.96783 | -71.09847 | 4830 ft | 185 kts | 244° |
| 2026-05-05 19:17 | 46.96231 | -71.11513 | 4754 ft | 181 kts | 244° |
| 2026-05-05 19:17 | 46.95685 | -71.13164 | 4680 ft | 180 kts | 244° |
| 2026-05-05 19:18 | 46.95143 | -71.14803 | 4603 ft | 178 kts | 244° |
| 2026-05-05 19:18 | 46.94616 | -71.16393 | 4524 ft | 168 kts | 244° |
| 2026-05-05 19:18 | 46.94029 | -71.17813 | 4441 ft | 162 kts | 231° |
| 2026-05-05 19:18 | 46.93223 | -71.18996 | 4185 ft | 165 kts | 228° |
| 2026-05-05 19:19 | 46.92409 | -71.20172 | 3953 ft | 162 kts | 228° |
| 2026-05-05 19:19 | 46.91637 | -71.21284 | 3711 ft | 154 kts | 227° |
| 2026-05-05 19:19 | 46.90894 | -71.22353 | 3486 ft | 147 kts | 227° |
| 2026-05-05 19:19 | 46.90175 | -71.23389 | 3275 ft | 142 kts | 228° |
| 2026-05-05 19:20 | 46.89467 | -71.24416 | 3071 ft | 141 kts | 228° |
| 2026-05-05 19:20 | 46.88784 | -71.25407 | 2843 ft | 139 kts | 227° |
| 2026-05-05 19:20 | 46.88096 | -71.26403 | 2636 ft | 140 kts | 226° |
| 2026-05-05 19:20 | 46.87402 | -71.27405 | 2437 ft | 140 kts | 227° |
| 2026-05-05 19:21 | 46.86712 | -71.28402 | 2226 ft | 139 kts | 226° |
| 2026-05-05 19:21 | 46.86022 | -71.29402 | 2034 ft | 141 kts | 227° |
| 2026-05-05 19:21 | 46.85314 | -71.30428 | 1843 ft | 149 kts | 226° |
| 2026-05-05 19:21 | 46.84568 | -71.31502 | 1650 ft | 153 kts | 226° |
| 2026-05-05 19:22 | 46.83800 | -71.32607 | 1426 ft | 158 kts | 226° |
| 2026-05-05 19:22 | 46.83030 | -71.33800 | 1128 ft | 164 kts | 226° |
| 2026-05-05 19:22 | 46.82250 | -71.34970 | 773 ft | 156 kts | 225° |
| 2026-05-05 19:22 | 46.81493 | -71.36029 | 573 ft | 146 kts | 222° |
| 2026-05-05 19:23 | 46.80778 | -71.37012 | 462 ft | 139 kts | 223° |
| 2026-05-05 19:23 | 46.80085 | -71.37986 | 310 ft | 136 kts | 224° |
| 2026-05-05 19:23 | 46.79437 | -71.38909 | 247 ft | 113 kts | 225° |
| 2026-05-05 19:23 | 46.79003 | -71.39539 | 247 ft | 63 kts | 225° |
| 2026-05-05 19:24 | 46.78811 | -71.39815 | 248 ft | 17 kts | 225° |
| 2026-05-05 19:24 | 46.78722 | -71.39945 | 248 ft | 19 kts | 225° |
| 2026-05-05 19:24 | 46.78622 | -71.40095 | 246 ft | 22 kts | 226° |
| 2026-05-05 19:24 | 46.78542 | -71.40164 | 247 ft | 9 kts | 169° |
| 2026-05-05 19:25 | 46.78490 | -71.40086 | 245 ft | 12 kts | 99° |
| 2026-05-05 19:25 | 46.78487 | -71.39986 | 244 ft | 11 kts | 89° |
| 2026-05-05 19:25 | 46.78497 | -71.39864 | 244 ft | 13 kts | 66° |
| 2026-05-05 19:25 | 46.78565 | -71.39754 | 244 ft | 16 kts | 42° |
| 2026-05-05 19:26 | 46.78649 | -71.39633 | 244 ft | 18 kts | 45° |
| 2026-05-05 19:26 | 46.78737 | -71.39504 | 244 ft | 10 kts | 44° |
| 2026-05-05 19:26 | 46.78755 | -71.39478 | 244 ft | 11 kts | 45° |
| 2026-05-05 19:26 | 46.78844 | -71.39372 | 245 ft | 19 kts | 35° |
| 2026-05-05 19:27 | 46.78959 | -71.39247 | 244 ft | 22 kts | 42° |
| 2026-05-05 19:27 | 46.79070 | -71.39088 | 244 ft | 21 kts | 45° |
| 2026-05-05 19:27 | 46.79165 | -71.38951 | 244 ft | 17 kts | 45° |
| 2026-05-05 19:27 | 46.79193 | -71.38860 | 244 ft | 10 kts | 102° |
| 2026-05-05 19:28 | 46.79138 | -71.38792 | 244 ft | 12 kts | 151° |
| 2026-05-05 19:28 | 46.79067 | -71.38733 | 244 ft | 8 kts | 145° |
| 2026-05-05 19:28 | 46.79059 | -71.38652 | 244 ft | 7 kts | 63° |
| 2026-05-05 19:28 | 46.79105 | -71.38617 | 244 ft | 9 kts | 5° |
| 2026-05-05 19:29 | 46.79167 | -71.38602 | 244 ft | 6 kts | 27° |
| 2026-05-05 19:29 | 46.79181 | -71.38556 | 244 ft | 5 kts | 84° |
| 2026-05-05 19:29 | 46.79178 | -71.38517 | 243 ft | 3 kts | 98° |
| 2026-05-05 19:29 | 46.79176 | -71.38501 | 243 ft | 2 kts | 100° |
| 2026-05-05 19:30 | 46.79175 | -71.38496 | 244 ft | 1 kts | 101° |
| 2026-05-05 19:30 | 46.79175 | -71.38491 | 244 ft | 0 kts | 101° |